SBOSBO YVR / CYVR
Speedbird OnlineSpeedbird Online YVR / CYVR

Vancouver International Airport
15:25 7.2°C

Location Vancouver, Canada
Latitude: 49.193901062
Longitude: -123.183998108
Web Airport Website | Wikipedia
Altitude 4 Meter / 14 Feet
Distance 7,599 KM / 4,722 Miles
from London.
Time Zone UTC -8 hours (America/Vancouver)
Codes IATA: YVR
ICAO: CYVR
Currency £1 equals CAD 1.62
Runways
RunwayLength (m)Surface
08L3030Concrete
08R3505Asphalt
26A1067Concrete
26L3505Asphalt
26R3030Concrete
XX1067Concrete
132225Concrete
312225Concrete
Radio
TypeDescriptionFrequency
APPAPP128.6
ATISATIS124.6
CLDCLNC DEL121.4
DEPDEP126.125
GNDGND121.7
RCOPACIFIC RDO123.15
TWRTWR118.7
TWRTWR23.66
Live ATC
METAR CYVR 081400Z VRB04KT 20SM SKC 01/01 A3039 RMK SLP292
TAF TAF CYVR 081440Z 0815/0918 10005KT P6SM SKC FM082100 10010KT P6SM FEW050 FEW150 FM090000 12010KT P6SM FEW050 SCT070 BKN120 FM090600 07010KT P6SM SCT050 BKN070 FM090900 07010KT P6SM -SHRA BKN050 OVC070 RMK NXT FCST BY 081800Z
Weather As Of 08 Feb 2023 15:25
Description Overcast clouds
Wind 15 km/h from South (160°)
Cloud Cover 100%
Precipitation Rain: none, Snow: none
Sunrise 07:33
Sunset 17:20
Lounges Cathay Pacific Lounge (Temporarily Closed), International Departure
Plaza Premium Lounge, International Departures
Rotations During the last 90 days there were
73 flights from LHR
79 flights to LHR



Support Speedbird Online

© 2017-2023 Speedbird Online